Village of Loch Lloyd, Missouri
Current Conditions -  °F | °C
As of 10:53 AM on Friday 24 Oct 2014 (Local Time) from KOJC Reporting Station
Clear Clear  
Wind Chill: 63°   Ceiling: Unl
Heat Index: 63°   Visibility: 8mi
Dew Point: 59°   Wind: 10mph
Humidity: 87%   Direction: 210°SSW
Pressure: 30.05"   Gusts: NA
Location:  38.7873°N, 94.553°W
Report Text: KOJC 241553Z 21009KT 8SM CLR 17/15 A3005 RMK AO2 SLP172 T01720150
Loading
Personal Weather Stations






























Interactive Weather Map
Tropical Storm Tracking
New forecast layout! Learn more

10-Day Weather Forecast

Advertisements
Track Severe Weather on mobile